Time;durP1;ratioP1;P1;durP2;ratioP2;P2;SDS_P1;SDS_P2;PMS_P1;PMS_P2;Temp;Humidity;BMP_temperature;BMP_pressure;BME280_temperature;BME280_humidity;BME280_pressure;Samples;Min_cycle;Max_cycle;Signal;HPM_P1;HPM_P2
2022/09/11 00:00:25;;;;;;;48.40;32.60;;;;;;;14.12;100.00;68336.81;4986296;28;20454;-76
2022/09/11 00:02:51;;;;;;;47.85;31.75;;;;;;;14.05;100.00;68334.75;4985068;28;20466;-77
2022/09/11 00:05:16;;;;;;;51.92;33.28;;;;;;;;;;4981008;28;20046;-76
2022/09/11 00:07:41;;;;;;;58.00;35.20;;;;;;;14.04;100.00;68322.94;4983585;28;20113;-76
2022/09/11 00:10:07;;;;;;;61.10;36.15;;;;;;;;;;4982310;28;20369;-77
2022/09/11 00:12:32;;;;;;;58.97;37.30;;;;;;;14.11;100.00;68336.22;4988028;28;20065;-77
2022/09/11 00:14:59;;;;;;;65.78;40.75;;;;;;;14.19;100.00;68342.66;4976875;28;20062;-77
2022/09/11 00:17:24;;;;;;;69.28;40.80;;;;;;;14.20;100.00;68343.22;4979696;28;20371;-76
2022/09/11 00:19:49;;;;;;;73.13;40.25;;;;;;;14.30;100.00;68356.72;4988042;28;20042;-76
2022/09/11 00:22:15;;;;;;;64.60;37.40;;;;;;;14.28;100.00;68354.44;4985988;28;20383;-77
2022/09/11 00:24:40;;;;;;;73.25;40.20;;;;;;;14.32;100.00;68359.00;4989078;28;20074;-76
2022/09/11 00:27:06;;;;;;;70.38;40.53;;;;;;;14.36;100.00;68364.13;4983116;28;20042;-77
2022/09/11 00:29:32;;;;;;;68.65;38.80;;;;;;;14.37;100.00;68362.00;4989279;28;20039;-77
2022/09/11 00:31:58;;;;;;;73.85;41.28;;;;;;;14.33;100.00;68360.16;4982433;28;20508;-77
2022/09/11 00:34:23;;;;;;;72.88;42.60;;;;;;;14.33;100.00;68355.34;4983158;28;20042;-77
2022/09/11 00:36:48;;;;;;;74.72;39.55;;;;;;;14.34;100.00;68358.59;4986415;28;20114;-77
2022/09/11 00:39:14;;;;;;;76.22;44.72;;;;;;;14.35;100.00;68362.97;4981709;28;20088;-77
2022/09/11 00:41:43;;;;;;;66.95;39.05;;;;;;;14.35;100.00;68362.41;4987463;28;20040;-76
2022/09/11 00:44:17;;;;;;;76.55;42.78;;;;;;;14.36;100.00;68369.47;4982319;28;20054;-76
2022/09/11 00:46:54;;;;;;;70.82;39.83;;;;;;;14.31;100.00;68355.19;4986689;28;20307;-76
2022/09/11 00:49:32;;;;;;;85.00;44.55;;;;;;;14.34;100.00;68366.63;4969644;28;20081;-76
2022/09/11 00:52:04;;;;;;;76.05;40.85;;;;;;;14.25;100.00;68351.03;4986845;28;20042;-77
2022/09/11 00:54:36;;;;;;;76.32;41.33;;;;;;;14.29;100.00;68352.91;4984483;28;20051;-77
2022/09/11 00:57:05;;;;;;;83.43;44.78;;;;;;;14.22;100.00;68348.75;4981060;28;20395;-76
2022/09/11 00:59:33;;;;;;;77.95;41.53;;;;;;;14.21;100.00;68344.38;4985476;28;20496;-76
2022/09/11 01:01:58;;;;;;;76.38;43.25;;;;;;;14.14;100.00;68339.09;4986655;28;20042;-76
2022/09/11 01:04:24;;;;;;;89.05;47.47;;;;;;;14.09;100.00;68330.72;4987223;28;20038;-77
2022/09/11 01:06:53;;;;;;;87.28;48.22;;;;;;;14.08;100.00;68332.81;4988745;28;20494;-78
2022/09/11 01:09:19;;;;;;;90.32;47.15;;;;;;;;;;4970167;28;20043;-76
2022/09/11 01:12:05;;;;;;;94.03;47.50;;;;;;;14.07;100.00;68326.34;4990916;28;20034;-76
2022/09/11 01:14:46;;;;;;;93.65;49.47;;;;;;;14.05;100.00;68323.50;4972822;28;20042;-75
2022/09/11 01:17:11;;;;;;;82.68;45.45;;;;;;;;;;4989233;28;20473;-78
2022/09/11 01:19:52;;;;;;;84.10;43.17;;;;;;;13.99;100.00;68323.16;4988872;28;20122;-76
2022/09/11 01:22:54;;;;;;;100.78;52.67;;;;;;;13.99;100.00;68323.16;5007120;28;20280;-78
2022/09/11 01:25:44;;;;;;;86.40;47.08;;;;;;;13.95;100.00;68315.34;4987110;28;20042;-78
2022/09/11 01:28:14;;;;;;;92.18;48.05;;;;;;;13.91;100.00;68311.38;4985755;28;20049;-77
2022/09/11 01:30:42;;;;;;;89.07;47.78;;;;;;;;;;4990491;28;20445;-78
2022/09/11 01:33:23;;;;;;;92.80;47.38;;;;;;;;;;4974403;28;20126;-76
2022/09/11 01:35:57;;;;;;;102.95;54.65;;;;;;;13.93;100.00;68313.66;4988862;28;20038;-76
2022/09/11 01:38:36;;;;;;;95.55;49.63;;;;;;;13.92;100.00;68315.19;4990333;28;20046;-78
2022/09/11 01:41:01;;;;;;;;;;;;;;;;;;4988430;28;20142;-78
2022/09/11 01:43:30;;;;;;;96.40;51.23;;;;;;;13.92;100.00;68314.59;4989915;28;19996;-78
2022/09/11 01:46:00;;;;;;;105.90;55.78;;;;;;;13.96;100.00;68319.75;4985837;28;20293;-78
2022/09/11 01:48:30;;;;;;;104.10;52.47;;;;;;;14.03;100.00;68326.56;4987743;28;20108;-76
2022/09/11 01:50:58;;;;;;;119.05;59.40;;;;;;;14.07;100.00;68329.00;4987680;28;20035;-77
2022/09/11 01:53:25;;;;;;;117.38;55.40;;;;;;;;;;4989588;28;20709;-78
2022/09/11 01:56:01;;;;;;;121.15;58.03;;;;;;;14.12;100.00;68334.69;4987626;28;20041;-77
2022/09/11 01:58:29;;;;;;;119.88;55.72;;;;;;;14.17;100.00;68339.81;4983995;28;20039;-76
2022/09/11 02:01:09;;;;;;;118.75;55.60;;;;;;;14.18;100.00;68344.22;4976483;28;20097;-76
2022/09/11 02:04:00;;;;;;;;;;;;;;;14.22;100.00;68348.75;4984342;28;20509;-78
2022/09/11 02:06:58;;;;;;;129.70;59.90;;;;;;;14.14;100.00;68336.41;4960923;28;19930;-77
2022/09/11 02:09:26;;;;;;;116.47;56.78;;;;;;;;;;4970742;28;20544;-77
2022/09/11 02:11:54;;;;;;;123.53;61.03;;;;;;;14.16;100.00;68341.94;4988412;28;20065;-77
2022/09/11 02:14:30;;;;;;;129.70;62.57;;;;;;;14.17;100.00;68342.50;4989504;28;20046;-76
2022/09/11 02:17:39;;;;;;;129.43;62.10;;;;;;;14.16;100.00;68341.94;4986691;28;20074;-76
2022/09/11 02:20:07;;;;;;;140.02;62.20;;;;;;;14.12;100.00;68337.38;4968102;28;20047;-78
2022/09/11 02:22:32;;;;;;;155.77;67.65;;;;;;;14.11;100.00;68336.22;4949200;28;20615;-78
2022/09/11 02:24:57;;;;;;;150.15;61.20;;;;;;;14.10;100.00;68335.09;4984269;28;20125;-77
2022/09/11 02:27:26;;;;;;;162.73;63.92;;;;;;;14.15;100.00;68338.09;4990875;28;20045;-75
2022/09/11 02:29:52;;;;;;;226.02;71.80;;;;;;;14.13;100.00;68338.53;4989465;28;20432;-78
2022/09/11 02:32:19;;;;;;;210.98;70.47;;;;;;;14.12;100.00;68334.13;4983121;28;20030;-74
2022/09/11 02:34:45;;;;;;;168.32;67.15;;;;;;;;;;4991368;28;20042;-76
2022/09/11 02:37:23;;;;;;;270.23;70.40;;;;;;;14.14;100.00;68344.44;4976774;28;20471;-78
2022/09/11 02:39:59;;;;;;;174.85;64.38;;;;;;;14.14;100.00;68339.09;4981840;28;20035;-75
2022/09/11 02:42:40;;;;;;;314.98;74.82;;;;;;;14.06;100.00;68330.53;4988750;28;20105;-76
2022/09/11 02:45:20;;;;;;;369.70;81.03;;;;;;;14.06;100.00;68327.88;4988084;28;20088;-76
2022/09/11 02:48:13;;;;;;;320.70;72.65;;;;;;;14.05;100.00;68326.72;4991009;28;20724;-78
2022/09/11 02:50:51;;;;;;;462.52;83.15;;;;;;;13.95;100.00;68312.66;4959184;28;20054;-77
2022/09/11 02:53:28;;;;;;;339.50;74.45;;;;;;;13.99;100.00;68322.59;4986255;28;20069;-76
2022/09/11 02:56:22;;;;;;;216.18;65.75;;;;;;;;;;4990548;28;20545;-77
2022/09/11 02:59:31;;;;;;;173.30;59.35;;;;;;;14.00;100.00;68324.28;4985530;28;20042;-77
2022/09/11 03:01:59;;;;;;;239.52;65.80;;;;;;;13.99;100.00;68319.91;4969621;28;20569;-79
2022/09/11 03:04:24;;;;;;;344.55;75.38;;;;;;;;;;4987320;28;20751;-77
2022/09/11 03:06:51;;;;;;;432.85;83.25;;;;;;;13.93;100.00;68313.66;4968300;28;20030;-76
2022/09/11 03:09:17;;;;;;;447.88;85.15;;;;;;;13.93;100.00;68313.66;4988517;28;20077;-78
2022/09/11 03:11:43;;;;;;;358.88;79.90;;;;;;;13.84;100.00;68306.09;4987649;28;20046;-78
2022/09/11 03:14:09;;;;;;;320.27;69.57;;;;;;;13.85;100.00;68307.22;4988403;28;20061;-77
2022/09/11 03:16:39;;;;;;;400.40;77.43;;;;;;;;;;4984428;28;20038;-78
2022/09/11 03:19:07;;;;;;;395.77;75.20;;;;;;;13.74;100.00;68295.28;4984633;28;20053;-77
2022/09/11 03:21:33;;;;;;;332.30;69.43;;;;;;;13.74;100.00;68295.28;4990791;28;20057;-77
2022/09/11 03:23:59;;;;;;;193.32;64.45;;;;;;;13.83;100.00;68304.38;4990603;28;20414;-78
2022/09/11 03:26:25;;;;;;;280.05;66.97;;;;;;;13.74;100.00;68295.28;4988628;28;20042;-78
2022/09/11 03:28:52;;;;;;;377.50;71.82;;;;;;;13.68;100.00;68288.44;4990494;28;20093;-75
2022/09/11 03:31:17;;;;;;;281.75;66.75;;;;;;;13.60;100.00;68276.09;4986666;28;20053;-79
2022/09/11 03:33:43;;;;;;;265.23;64.07;;;;;;;13.62;100.00;68281.63;4990064;28;20034;-76
2022/09/11 03:36:08;;;;;;;256.20;56.65;;;;;;;13.64;100.00;68281.22;4973903;28;20035;-77
2022/09/11 03:38:34;;;;;;;197.18;58.35;;;;;;;13.66;100.00;68282.94;4990167;28;20042;-77
2022/09/11 03:41:02;;;;;;;275.33;65.68;;;;;;;13.69;100.00;68286.91;4989364;28;20429;-77
2022/09/11 03:43:28;;;;;;;399.10;75.18;;;;;;;13.67;100.00;68292.09;4986574;28;20046;-75
2022/09/11 03:45:53;;;;;;;380.80;64.65;;;;;;;13.59;100.00;68272.28;4987259;28;20417;-75
2022/09/11 03:48:18;;;;;;;416.80;68.07;;;;;;;13.50;100.00;68273.31;4985390;28;20472;-77
2022/09/11 03:50:44;;;;;;;415.02;76.47;;;;;;;13.45;100.00;68259.63;4984334;28;20050;-79
2022/09/11 03:53:11;;;;;;;406.05;74.30;;;;;;;13.47;100.00;68264.56;4989953;28;20049;-80
2022/09/11 03:55:36;;;;;;;366.55;71.82;;;;;;;;;;4984869;28;20461;-76
2022/09/11 03:58:02;;;;;;;194.02;59.78;;;;;;;;;;4976337;28;20038;-76
2022/09/11 04:00:27;;;;;;;344.50;71.10;;;;;;;13.54;100.00;68277.88;4978624;28;20089;-78
2022/09/11 04:02:54;;;;;;;507.40;85.57;;;;;;;13.47;100.00;68264.56;4989088;28;20065;-78
2022/09/11 04:05:22;;;;;;;376.33;71.35;;;;;;;13.44;100.00;68261.72;4989414;28;20442;-77
2022/09/11 04:07:48;;;;;;;476.58;78.10;;;;;;;13.38;100.00;68248.97;4989076;28;20401;-75
2022/09/11 04:10:13;;;;;;;339.67;69.20;;;;;;;;;;4988977;28;20125;-76
2022/09/11 04:12:40;;;;;;;333.90;66.85;;;;;;;13.37;100.00;68253.19;4978166;28;20046;-77
2022/09/11 04:15:07;;;;;;;398.08;76.78;;;;;;;13.36;100.00;68252.63;4985270;28;20085;-77
2022/09/11 04:17:33;;;;;;;404.23;76.68;;;;;;;13.42;100.00;68258.88;4989356;28;20097;-76
2022/09/11 04:19:59;;;;;;;298.63;65.75;;;;;;;13.44;100.00;68261.16;4988272;28;20034;-78
2022/09/11 04:22:25;;;;;;;343.98;65.95;;;;;;;13.49;100.00;68264.75;4984862;28;20454;-76
2022/09/11 04:24:50;;;;;;;458.58;62.85;;;;;;;13.39;100.00;68256.03;4989331;28;20042;-78
2022/09/11 04:27:17;;;;;;;324.70;70.95;;;;;;;;;;4989325;28;20041;-76
2022/09/11 04:29:42;;;;;;;227.00;58.60;;;;;;;13.51;100.00;68269.09;4988617;28;20383;-77
2022/09/11 04:32:10;;;;;;;318.30;66.93;;;;;;;13.56;100.00;68272.13;4990568;28;20057;-78
2022/09/11 04:34:36;;;;;;;537.05;85.70;;;;;;;13.50;100.00;68265.31;4989174;28;20097;-79
2022/09/11 04:37:02;;;;;;;373.92;67.63;;;;;;;13.50;100.00;68267.97;4987765;28;20046;-78
2022/09/11 04:39:28;;;;;;;492.48;84.85;;;;;;;13.48;100.00;68266.25;4989254;28;20026;-77
2022/09/11 04:41:54;;;;;;;541.35;90.45;;;;;;;;;;4988160;28;20492;-77
2022/09/11 04:44:19;;;;;;;399.52;77.18;;;;;;;13.47;100.00;68264.56;4984391;28;20050;-77
2022/09/11 04:46:45;;;;;;;471.30;75.60;;;;;;;13.50;100.00;68268.53;4976924;28;20104;-78
2022/09/11 04:49:11;;;;;;;513.60;83.18;;;;;;;13.58;100.00;68277.09;4984717;28;20115;-79
2022/09/11 04:51:37;;;;;;;454.65;75.50;;;;;;;;;;4982175;28;20038;-78
2022/09/11 04:54:04;;;;;;;394.30;70.20;;;;;;;13.65;100.00;68282.34;4985737;28;20040;-78
2022/09/11 04:56:33;;;;;;;420.40;66.22;;;;;;;13.56;100.00;68269.44;4980493;28;20042;-78
2022/09/11 04:59:01;;;;;;;359.17;65.28;;;;;;;13.58;100.00;68276.50;4980752;28;20041;-79
2022/09/11 05:01:28;;;;;;;526.42;74.32;;;;;;;;;;4986447;28;20042;-75
2022/09/11 05:03:55;;;;;;;458.70;72.68;;;;;;;13.61;100.00;68272.47;4981602;28;20066;-77
2022/09/11 05:06:21;;;;;;;450.48;69.05;;;;;;;13.64;100.00;68281.22;4987646;28;20037;-75
2022/09/11 05:08:47;;;;;;;529.50;82.82;;;;;;;;;;4981051;28;20054;-78
2022/09/11 05:11:15;;;;;;;327.63;75.15;;;;;;;13.64;100.00;68280.66;4970841;28;20081;-79
2022/09/11 05:13:41;;;;;;;373.67;75.40;;;;;;;13.59;100.00;68278.22;4988702;28;20246;-76
2022/09/11 05:16:10;;;;;;;477.77;78.70;;;;;;;13.56;100.00;68274.81;4986198;28;20121;-76
2022/09/11 05:18:39;;;;;;;509.42;78.75;;;;;;;13.57;100.00;68272.69;4984075;28;20523;-77
2022/09/11 05:21:06;;;;;;;365.55;76.57;;;;;;;;;;4981519;28;20042;-78
2022/09/11 05:23:32;;;;;;;369.25;78.65;;;;;;;13.57;100.00;68275.38;4980520;28;20053;-78
2022/09/11 05:25:58;;;;;;;438.38;83.88;;;;;;;13.59;100.00;68277.66;4978117;28;20129;-78
2022/09/11 05:28:25;;;;;;;262.33;69.40;;;;;;;13.59;100.00;68277.66;4981590;28;20046;-77
2022/09/11 05:30:52;;;;;;;421.80;83.45;;;;;;;;;;4987281;28;20038;-76
2022/09/11 05:33:17;;;;;;;347.27;77.10;;;;;;;13.55;100.00;68268.31;4984865;28;20141;-76
2022/09/11 05:35:43;;;;;;;350.67;78.65;;;;;;;;;;4988431;28;20781;-77
2022/09/11 05:38:09;;;;;;;435.80;78.43;;;;;;;13.59;100.00;68277.66;4988974;28;21052;-78
2022/09/11 05:40:35;;;;;;;300.48;75.68;;;;;;;13.54;100.00;68277.88;4995439;28;20054;-78
2022/09/11 05:43:01;;;;;;;317.98;64.35;;;;;;;13.65;100.00;68284.47;4989759;28;20053;-79
2022/09/11 05:45:26;;;;;;;297.95;71.10;;;;;;;13.64;100.00;68283.91;4992387;28;20046;-78
2022/09/11 05:47:52;;;;;;;256.20;72.60;;;;;;;13.71;100.00;68296.66;4990175;28;20038;-79
2022/09/11 05:50:20;;;;;;;266.17;75.95;;;;;;;13.69;100.00;68289.56;4995286;28;20049;-77
2022/09/11 05:52:46;;;;;;;238.50;66.90;;;;;;;13.69;100.00;68286.34;4989400;28;20085;-79
2022/09/11 05:55:11;;;;;;;271.10;61.47;;;;;;;;;;4986727;28;20046;-79
2022/09/11 05:57:36;;;;;;;230.18;64.25;;;;;;;13.67;100.00;68287.31;4993127;28;20073;-79
2022/09/11 06:00:04;;;;;;;321.42;72.55;;;;;;;13.62;100.00;68281.63;4992240;28;20057;-79
2022/09/11 06:02:29;;;;;;;251.85;60.25;;;;;;;13.60;100.00;68278.78;4976948;28;20321;-79
2022/09/11 06:04:55;;;;;;;270.35;70.88;;;;;;;13.62;100.00;68281.63;4994634;28;20478;-78
2022/09/11 06:07:21;;;;;;;200.48;61.40;;;;;;;13.73;100.00;68293.56;4995444;28;20097;-77
2022/09/11 06:09:46;;;;;;;255.20;63.35;;;;;;;13.75;100.00;68296.41;4996301;28;20042;-79
2022/09/11 06:12:12;;;;;;;254.48;77.10;;;;;;;13.74;100.00;68289.91;4994932;28;20046;-79
2022/09/11 06:14:37;;;;;;;203.05;68.25;;;;;;;13.78;100.00;68296.56;4990169;28;20389;-77
2022/09/11 06:17:03;;;;;;;211.45;63.17;;;;;;;13.79;100.00;68299.84;4986774;28;20085;-78
2022/09/11 06:19:28;;;;;;;213.93;68.45;;;;;;;13.79;100.00;68299.84;4989414;28;20504;-77
2022/09/11 06:21:55;;;;;;;197.75;63.92;;;;;;;13.81;100.00;68299.41;4990318;28;20056;-78
2022/09/11 06:24:20;;;;;;;214.48;65.65;;;;;;;;;;4989537;28;20061;-78
2022/09/11 06:26:46;;;;;;;202.30;65.55;;;;;;;13.84;100.00;68305.50;4990721;28;20074;-78
2022/09/11 06:29:13;;;;;;;225.32;73.00;;;;;;;13.82;100.00;68303.81;4971286;28;20445;-77
2022/09/11 06:31:39;;;;;;;206.05;71.63;;;;;;;13.86;100.00;68305.13;4989397;28;20046;-80
2022/09/11 06:34:05;;;;;;;190.82;66.55;;;;;;;13.89;100.00;68311.19;4988964;28;20440;-77
2022/09/11 06:36:30;;;;;;;179.13;58.53;;;;;;;13.92;100.00;68312.50;4983698;28;20047;-79
2022/09/11 06:38:57;;;;;;;187.88;64.30;;;;;;;13.91;100.00;68313.47;4988157;28;20505;-77
2022/09/11 06:41:24;;;;;;;170.43;62.83;;;;;;;13.99;100.00;68323.16;4989129;28;20035;-77
2022/09/11 06:43:51;;;;;;;177.93;67.55;;;;;;;13.96;100.00;68319.16;4984662;28;20125;-77
2022/09/11 06:46:21;;;;;;;180.98;68.13;;;;;;;13.92;100.00;68314.59;4986718;28;20053;-78
2022/09/11 06:48:48;;;;;;;181.52;55.67;;;;;;;14.00;100.00;68321.59;4987114;28;20042;-80
2022/09/11 06:51:16;;;;;;;186.50;52.78;;;;;;;13.99;100.00;68322.59;4986765;28;20317;-80
2022/09/11 06:53:42;;;;;;;183.43;53.80;;;;;;;14.03;100.00;68327.13;4985148;28;20138;-77
2022/09/11 06:56:12;;;;;;;189.45;55.58;;;;;;;;;;4981734;28;20458;-77
2022/09/11 06:58:38;;;;;;;;;;;;;;;;;;4980261;28;20042;-77
2022/09/11 07:01:05;;;;;;;182.20;58.70;;;;;;;14.13;100.00;68332.59;4976843;28;19918;-76
2022/09/11 07:03:31;;;;;;;179.02;61.63;;;;;;;14.19;100.00;68342.66;4978863;28;20134;-77
2022/09/11 07:05:57;;;;;;;178.55;59.22;;;;;;;;;;4986685;28;20046;-77
2022/09/11 07:08:22;;;;;;;173.45;60.67;;;;;;;14.31;100.00;68352.50;4984439;28;20050;-75
2022/09/11 07:10:48;;;;;;;169.15;55.00;;;;;;;14.39;100.00;68366.97;4988187;28;20142;-79
2022/09/11 07:13:13;;;;;;;167.93;60.42;;;;;;;14.49;100.00;68378.34;4984432;28;20129;-76
2022/09/11 07:15:39;;;;;;;168.57;59.80;;;;;;;14.54;100.00;68378.72;4984758;28;20043;-78
2022/09/11 07:18:04;;;;;;;159.80;56.30;;;;;;;14.58;100.00;68385.94;4987647;28;20134;-75
2022/09/11 07:20:30;;;;;;;158.30;67.43;;;;;;;14.73;100.00;68401.88;4984184;28;20458;-77
2022/09/11 07:22:57;;;;;;;145.80;64.38;;;;;;;14.79;100.00;68406.03;4986114;28;20035;-75
2022/09/11 07:25:22;;;;;;;146.73;57.38;;;;;;;;;;4984688;28;20126;-78
2022/09/11 07:27:50;;;;;;;138.00;61.40;;;;;;;14.84;100.00;68417.06;4990663;28;20129;-77
2022/09/11 07:30:17;;;;;;;139.48;60.83;;;;;;;14.90;100.00;68418.53;4984906;28;20121;-77
2022/09/11 07:32:43;;;;;;;135.82;64.93;;;;;;;14.93;100.00;68424.63;4986775;28;20042;-76
2022/09/11 07:35:08;;;;;;;136.70;64.88;;;;;;;14.89;100.00;68422.78;4982546;28;20049;-76
2022/09/11 07:37:33;;;;;;;135.70;61.38;;;;;;;14.87;100.00;68417.81;4984569;28;20066;-76
2022/09/11 07:39:59;;;;;;;132.38;63.15;;;;;;;14.90;100.00;68418.53;4986348;28;20077;-77
2022/09/11 07:42:24;;;;;;;138.68;59.88;;;;;;;14.93;100.00;68424.06;4989196;28;20058;-77
2022/09/11 07:44:49;;;;;;;126.93;63.05;;;;;;;14.92;100.00;68423.50;4977756;28;20054;-77
2022/09/11 07:47:15;;;;;;;133.95;57.15;;;;;;;15.05;100.00;68438.31;4982286;28;20081;-77
2022/09/11 07:49:41;;;;;;;120.78;58.03;;;;;;;15.13;100.00;68449.53;4990697;28;20445;-76
2022/09/11 07:52:06;;;;;;;128.38;55.92;;;;;;;15.20;100.00;68456.94;4990043;28;20130;-76
2022/09/11 07:54:31;;;;;;;109.13;57.13;;;;;;;15.19;100.00;68451.00;4979788;28;20058;-76
2022/09/11 07:56:57;;;;;;;112.05;55.88;;;;;;;15.34;100.00;68470.22;4973365;28;20118;-77
2022/09/11 07:59:23;;;;;;;101.13;46.97;;;;;;;15.26;100.00;68461.09;4974589;28;20050;-76
2022/09/11 08:01:49;;;;;;;109.20;48.78;;;;;;;15.20;100.00;68457.50;4976121;28;20046;-76
2022/09/11 08:04:15;;;;;;;100.88;52.05;;;;;;;15.29;100.00;68467.75;4979966;28;20035;-77
2022/09/11 08:06:41;;;;;;;95.95;51.40;;;;;;;;;;4986856;28;20035;-76
2022/09/11 08:09:09;;;;;;;85.90;47.97;;;;;;;15.50;100.00;68490.53;4988740;28;20464;-76
2022/09/11 08:11:41;;;;;;;85.65;46.95;;;;;;;15.57;100.00;68493.16;4983983;28;20046;-77
2022/09/11 08:14:07;;;;;;;77.88;44.25;;;;;;;;;;4982847;28;20181;-77
2022/09/11 08:16:34;;;;;;;68.70;41.45;;;;;;;15.66;100.00;68505.53;4986215;28;20129;-76
2022/09/11 08:19:01;;;;;;;62.72;41.28;;;;;;;15.80;100.00;68518.81;4983781;28;20046;-76
2022/09/11 08:21:26;;;;;;;60.90;39.92;;;;;;;15.87;100.00;68526.78;4987895;28;20165;-76
2022/09/11 08:23:52;;;;;;;58.83;38.70;;;;;;;15.91;100.00;68542.09;4990074;28;20135;-76
2022/09/11 08:26:23;;;;;;;55.45;38.85;;;;;;;15.98;100.00;68542.00;4983329;28;20050;-76
2022/09/11 08:28:51;;;;;;;49.45;37.40;;;;;;;16.17;100.00;68557.72;4979472;28;20518;-76
2022/09/11 08:31:20;;;;;;;48.10;34.45;;;;;;;16.05;100.00;68548.84;4978778;28;20050;-76
2022/09/11 08:33:48;;;;;;;45.38;32.00;;;;;;;16.24;100.00;68568.38;4987000;28;20089;-76
2022/09/11 08:36:13;;;;;;;43.22;33.65;;;;;;;16.45;100.00;68597.09;4988466;28;20042;-76
2022/09/11 08:38:39;;;;;;;37.85;28.77;;;;;;;16.53;100.00;68602.41;4988798;28;20117;-76
2022/09/11 08:41:28;;;;;;;41.13;28.35;;;;;;;16.43;100.00;68591.59;4989059;28;20046;-77
2022/09/11 08:44:09;;;;;;;34.70;26.23;;;;;;;16.44;100.00;68592.72;4978918;28;20037;-76
2022/09/11 08:46:41;;;;;;;36.92;28.00;;;;;;;16.64;100.00;68615.53;4972582;28;20050;-77
2022/09/11 08:49:26;;;;;;;37.28;26.83;;;;;;;16.84;100.00;68637.22;4984875;28;20051;-77
2022/09/11 08:51:57;;;;;;;32.28;25.90;;;;;;;16.88;100.00;68644.47;4982944;28;20096;-76
2022/09/11 08:54:35;;;;;;;37.47;25.25;;;;;;;16.92;100.00;68649.59;4982520;28;20046;-77
2022/09/11 08:57:09;;;;;;;29.47;24.50;;;;;;;;;;4982793;28;20098;-76
2022/09/11 08:59:53;;;;;;;30.05;25.95;;;;;;;17.06;100.00;68661.72;4983346;28;20066;-77
2022/09/11 09:02:26;;;;;;;30.33;25.08;;;;;;;17.06;100.00;68664.41;4976747;28;20042;-76
2022/09/11 09:05:07;;;;;;;33.00;26.85;;;;;;;17.12;100.00;68666.47;4979924;28;20410;-79
2022/09/11 09:08:03;;;;;;;30.42;25.98;;;;;;;17.19;100.00;68673.88;4964070;28;20050;-78
2022/09/11 09:10:48;;;;;;;33.75;27.52;;;;;;;17.18;100.00;68672.75;4975117;28;20042;-79
2022/09/11 09:13:37;;;;;;;31.17;27.77;;;;;;;17.04;100.00;68662.16;4981824;28;20038;-79
2022/09/11 09:16:12;;;;;;;;;;;;;;;17.00;100.00;68652.75;4984999;28;20164;-76
2022/09/11 09:18:46;;;;;;;33.05;26.52;;;;;;;16.95;100.00;68649.19;4979288;28;20395;-77
2022/09/11 09:21:20;;;;;;;32.63;26.27;;;;;;;16.90;100.00;68641.38;4989850;28;20073;-78
2022/09/11 09:23:51;;;;;;;30.85;25.40;;;;;;;16.98;100.00;68649.94;4992113;28;20494;-76
2022/09/11 09:26:18;;;;;;;33.70;28.85;;;;;;;17.06;100.00;68659.03;4990931;28;20031;-77
2022/09/11 09:28:45;;;;;;;30.90;26.17;;;;;;;17.15;100.00;68672.00;4988290;28;20482;-77
2022/09/11 09:31:16;;;;;;;34.65;26.13;;;;;;;17.23;100.00;68678.41;4986228;28;20200;-76
2022/09/11 09:33:53;;;;;;;33.53;28.52;;;;;;;17.23;100.00;68681.13;4988983;28;20050;-76
2022/09/11 09:36:26;;;;;;;34.88;24.80;;;;;;;17.12;100.00;68665.91;4981700;28;20045;-77
2022/09/11 09:38:52;;;;;;;36.30;28.00;;;;;;;17.30;100.00;68686.41;4991571;28;20509;-77
2022/09/11 09:41:33;;;;;;;31.08;23.92;;;;;;;17.28;100.00;68684.13;4991233;28;20126;-77
2022/09/11 09:44:27;;;;;;;29.55;26.02;;;;;;;17.42;100.00;68698.97;4991169;28;20046;-79
2022/09/11 09:46:57;;;;;;;32.67;27.15;;;;;;;17.50;100.00;68710.78;4990924;28;20083;-77
2022/09/11 09:49:33;;;;;;;30.38;24.45;;;;;;;17.67;100.00;68727.50;4956750;28;20497;-77
2022/09/11 09:52:11;;;;;;;25.13;21.67;;;;;;;17.69;100.00;68727.06;4985452;28;20509;-76
2022/09/11 09:54:37;;;;;;;25.30;20.92;;;;;;;17.77;100.00;68743.72;4973954;28;20527;-76
2022/09/11 09:57:09;;;;;;;22.17;19.17;;;;;;;17.89;100.00;68756.84;4987568;28;20137;-76
2022/09/11 09:59:50;;;;;;;21.23;16.50;;;;;;;17.99;100.00;68760.75;4983327;28;20050;-78
2022/09/11 10:02:38;;;;;;;20.17;16.02;;;;;;;18.13;99.33;68778.31;4987678;28;20042;-77
2022/09/11 10:05:19;;;;;;;22.77;20.10;;;;;;;18.07;99.70;68771.44;4990612;28;20092;-78
2022/09/11 10:07:46;;;;;;;16.48;14.32;;;;;;;18.22;98.87;68791.28;4977884;28;20038;-77
2022/09/11 10:10:30;;;;;;;19.02;14.40;;;;;;;18.39;95.65;68810.09;4982380;28;20034;-79
2022/09/11 10:13:01;;;;;;;18.05;14.75;;;;;;;18.32;95.52;68802.69;4983701;28;20042;-79
2022/09/11 10:15:26;;;;;;;15.30;13.68;;;;;;;18.39;95.03;68813.38;4985764;28;20043;-78
2022/09/11 10:17:52;;;;;;;19.20;15.68;;;;;;;18.46;96.09;68815.97;4981774;28;20038;-78
2022/09/11 10:20:17;;;;;;;17.75;14.93;;;;;;;18.49;94.46;68822.09;4983184;28;20053;-77
2022/09/11 10:22:47;;;;;;;20.88;17.10;;;;;;;18.51;95.12;68823.81;4980502;28;20082;-79
2022/09/11 10:25:26;;;;;;;18.90;16.83;;;;;;;18.41;94.06;68810.28;4979904;28;20057;-77
2022/09/11 10:28:16;;;;;;;19.77;13.98;;;;;;;18.38;94.34;68806.81;4970813;28;20382;-76
2022/09/11 10:31:01;;;;;;;19.75;15.52;;;;;;;18.32;95.17;68802.69;4977402;28;20043;-78
2022/09/11 10:33:33;;;;;;;16.73;14.90;;;;;;;18.39;94.77;68807.97;4982896;28;20054;-77
2022/09/11 10:36:02;;;;;;;17.50;14.30;;;;;;;18.42;94.26;68805.44;4985534;28;20038;-77
2022/09/11 10:38:43;;;;;;;18.00;16.08;;;;;;;18.56;94.49;68829.53;4984617;28;20050;-77
2022/09/11 10:41:11;;;;;;;16.35;14.63;;;;;;;18.75;92.86;68852.78;4988057;28;20051;-76
2022/09/11 10:43:48;;;;;;;15.63;13.57;;;;;;;19.03;91.90;68878.81;4987169;28;20428;-76
2022/09/11 10:46:16;;;;;;;18.70;14.50;;;;;;;19.15;92.25;68890.38;4985050;28;20294;-77
2022/09/11 10:48:42;;;;;;;16.40;14.07;;;;;;;19.31;91.04;68915.63;4978180;28;20050;-77
2022/09/11 10:51:11;;;;;;;13.75;12.25;;;;;;;19.47;91.29;68928.47;4984461;28;20521;-78
2022/09/11 10:54:02;;;;;;;13.48;12.05;;;;;;;19.49;87.61;68930.22;4962936;28;20127;-77
2022/09/11 10:56:28;;;;;;;17.42;14.32;;;;;;;19.44;88.93;68925.06;4951585;28;20046;-77
2022/09/11 10:59:04;;;;;;;17.50;14.18;;;;;;;19.55;90.50;68937.63;4978370;28;20070;-76
2022/09/11 11:01:29;;;;;;;17.08;15.27;;;;;;;19.65;90.54;68950.59;4947504;28;20046;-78
2022/09/11 11:03:55;;;;;;;19.75;16.48;;;;;;;19.73;88.92;68959.78;4980277;28;20065;-77
2022/09/11 11:06:44;;;;;;;16.10;14.38;;;;;;;19.87;90.08;68972.50;4978957;28;20039;-76
2022/09/11 11:09:31;;;;;;;21.17;16.05;;;;;;;19.76;86.93;68960.50;4974326;28;20070;-78
2022/09/11 11:11:56;;;;;;;17.42;15.55;;;;;;;19.61;88.54;68943.91;4975277;28;20049;-78
2022/09/11 11:14:27;;;;;;;16.60;14.80;;;;;;;19.88;87.03;68976.34;4970846;28;20058;-77
2022/09/11 11:17:22;;;;;;;15.15;12.23;;;;;;;20.01;84.81;68991.78;4975655;28;20094;-77
2022/09/11 11:19:57;;;;;;;18.35;13.00;;;;;;;20.19;85.77;69011.78;4943410;28;20125;-77
2022/09/11 11:23:00;;;;;;;17.38;13.68;;;;;;;20.08;84.06;68999.19;4983337;28;20129;-76
2022/09/11 11:25:47;;;;;;;15.25;12.38;;;;;;;19.87;86.08;68978.47;4958153;28;20050;-77
2022/09/11 11:28:15;;;;;;;14.95;12.48;;;;;;;19.86;85.92;68977.34;4974635;28;20142;-76
2022/09/11 11:30:54;;;;;;;14.53;12.37;;;;;;;19.82;85.63;68967.94;4972859;28;20078;-77
2022/09/11 11:33:43;;;;;;;16.92;11.98;;;;;;;19.70;85.74;68956.34;4977520;28;20282;-77
2022/09/11 11:36:29;;;;;;;14.25;11.48;;;;;;;19.78;84.69;68965.50;4956436;28;20046;-77
2022/09/11 11:39:01;;;;;;;17.13;12.45;;;;;;;19.73;85.37;68959.78;4979402;28;20073;-76